メインページ
METAR-TAF:

METAR-TAF

空港 :

サスカトゥーン, サスカチュワン州, カナダ

サスカトゥーン・ジョン・G・ディーフェンベーカー国際空港

緯度: 52-10N, 経度: 106-41W, 海抜: 501m

現時点の気象観測

当レポートは40分前の19:00(UTC)に作成
西の風 18kt
気温 4°C
湿度 87%
気圧 1007 hPa
視程: 24.1km
高度1100ftの曇り

METAR: CYXE 251900Z 28018KT 15SM OVC011 04/02 A2974 RMK SC8 SLP095

時間: 13:40 (19:40 UTC)

予報

当レポートは2時間2分前の17:38(UTC)に作成
予報は25日の 18時(UTC)から 26日の 18時(UTC)まで有効
西/北西の風 15kt、最大25ktの突風を伴う
視程: 10km
高度1200ftの曇り
25日の 2000時(UTC)から
西/北西の風 15kt、最大25ktの突風を伴う
視程: 10km
高度2000ftの千切れ雲あり
25日の 20時(UTC)から 25日の 24時(UTC)まで一時的に
高度2000ftの雲は散在している
26日の 0000時(UTC)から
西/北西の風 10kt
視程: 10km
高度3000ftの雲はほとんどない
26日の 01時(UTC)から 26日の 03時(UTC)まで徐々に
北/北東の風 8kt
26日の 0800時(UTC)から
の風 8kt
視程: 10km
高度8000ftの雲は散在している
26日の 08時(UTC)から 26日の 14時(UTC)まで一時的に
高度8000ftの千切れ雲あり
確率 30%
26日の 08時(UTC)から 26日の 14時(UTC)まで
視程: 1.2km
26日の 1400時(UTC)から
の風 8kt
視程: 10km
晴天

TAF: CYXE 251738Z 2518/2618 30015G25KT P6SM OVC012 FM252000 29015G25KT P6SM BKN020 TEMPO 2520/2524 SCT020 FM260000 30010KT P6SM FEW030 BECMG 2601/2603 03008KT FM260800 09008KT P6SM SCT080 TEMPO 2608/2614 BKN080 PROB30 2608/2614 3/4SM BR FM261400 18008KT P6SM SKC RMK NXT FCST BY 260000Z

4,000以上の空港の気象観測と天気予報(METAR報とTAF報)

利用可能な観測所は地図上に黄色い丸と赤い丸で示す。

丸の上にカーソルを重ねると観測所名を参照できる。

次にクリックすると気象観測と天気予報を参照できる。

マップの切り替え:黒色「×」印の緑ボタンをクリックして拡大、「-」印の緑ボタンをクリックして縮小、緑色の三角印をクリックして隣りの地図に切り替え


METAR-TAF: